Rhodos, Grekland

05:09 PM EET on Februari 20, 2018 (GMT +0200)
stadium of Diagoras-RHODES | | Change Station

Elev 49 ft 36.44 °N, 28.23 °E | Updated 1 second ago

Regn
Regn
59.0 °F
Feels Like 59.0 °F
N
1.2
Vind Växlande Vind from O/NO
Gusts 1.2 miles/tim

Idag
High -- | Low -- °F
--% Chance of Precip.
Yesterday
High -- | Low -- °F
Precip. -- tum
Lufttryck 29.83 tum
Sikt 5.0 miles
Molnigt Few 1000 ft
Few 1800 ft
Växlande molnighet 2500 ft
Daggpunkt 54 °F
Luftfuktighet 83%
Rainfall 0.04 tum
Snow Depth Not available.
6:49 AM 5:52 PM
Första kvarteret, 22% visible
METAR LGRP 201450Z VRB02KT 8000 -RA FEW010 FEW018TCU SCT025 13/12 Q1010 NOSIG
Lufttryck 29.83 tum
Sikt 5.0 miles
Molnigt Few 1000 ft
Few 1800 ft
Växlande molnighet 2500 ft
Daggpunkt 54 °F
Luftfuktighet 83%
Rainfall 0.04 tum
Snow Depth Not available.
6:49 AM 5:52 PM
Första kvarteret, 22% visible
METAR LGRP 201450Z VRB02KT 8000 -RA FEW010 FEW018TCU SCT025 13/12 Q1010 NOSIG

Get Severe Weather Alerts

Thanks for signing up!

Be on the lookout for a verification email in your inbox.

You'll start receiving the daily forecast at 6 AM.

×

10-Day Weather Forecast

×

Almanac

Astronomi

Feb. 20, 2018 Rise Set
Actual Time
Civil Twilight
Nautical Twilight
Astronomical Twilight
Månen
Length Of Visible Light
Dagens längd
Tomorrow will be .
, % of the Moon is Illuminated

Today's Extremes

Country Highs Country Lows

Community

WunderPhotos

Category 6

Welcome to Category 6. This is the collective home for Weather Underground's featured writeups by Dr. Jeff Masters (right), Bob Henson (left), Chris Burt, and other regular contributors.

Nearby

Air Quality

  Air Quality AQ Index Pollutant
Not available.

Snödjup

Station Depth Elevation

Earthquake Activity

Stad Distance Mag. Time & Date
Minimum magnitude displayed is 2.5.

Coastal Water Temperatures

Plats Temperatur

Stations

Nearby Weather Stations

Station Location Temp Vindavkylning Daggpunkt Luftfuktighet Vind Precip. Elev Uppdaterad Type